Terminal Aerodrome Forecast
Issued by NWS

Home | Current Version | Previous Version | Text Only | Print | Product List | Glossary On
Versions: 1 2 3 4 5 6 7 8 9 10 11 12 13 14 15 16 17 18 19 20 21
000
FTUS43 KEAX 182300
TAFMKC
TAF
KMKC 182330Z 1900/1924 09006KT P6SM OVC018
     FM190200 10005KT P6SM BKN023
     FM190600 11006KT 5SM BR OVC015
     FM190900 13006KT 3SM BR OVC007
     FM191500 14007KT P6SM BKN012
     FM191700 18010KT P6SM SCT025
      TEMPO 1917/1920 BKN025=

USA.gov is the U.S. government's official web portal to all federal, state and local government web resources and services.